This is the latest recevied weather packets stored in our database for station/object SP1BMW-13. If no packets are shown the sender has not sent any weather packets the latest 10 day(s).
| Time | Temp. | Humidity | Pressure | Rain* | Wind** | Luminosity | Snow |
|---|---|---|---|---|---|---|---|
| 1777636522 | 22.22° C | 39% | 1026.7 hPa | 0 mm | 0.89 m/s, 337° | 674 W/m² | - |
| 1777636461 | 22.22° C | 37% | 1026.9 hPa | 0 mm | 1.34 m/s, 47° | 676 W/m² | - |
| 1777636402 | 22.22° C | 37% | 1026.9 hPa | 0 mm | 0 m/s | 674 W/m² | - |
| 1777636342 | 21.67° C | 41% | 1026.7 hPa | 0 mm | 0.45 m/s, 340° | 676 W/m² | - |
| 1777636282 | 21.67° C | 38% | 1026.8 hPa | 0 mm | 0.89 m/s, 293° | 676 W/m² | - |
| 1777636222 | 21.67° C | 38% | 1026.8 hPa | 0 mm | 0 m/s | 678 W/m² | - |
| 1777636162 | 21.67° C | 38% | 1026.8 hPa | 0 mm | 0.89 m/s, 51° | 677 W/m² | - |
| 1777636102 | 22.22° C | 38% | 1026.7 hPa | 0 mm | 0.45 m/s, 263° | 677 W/m² | - |
| 1777636042 | 22.22° C | 38% | 1026.7 hPa | 0 mm | 2.24 m/s, 328° | 677 W/m² | - |
| 1777635982 | 22.22° C | 38% | 1026.7 hPa | 0 mm | 0 m/s | 677 W/m² | - |
| 1777635922 | 21.67° C | 38% | 1026.7 hPa | 0 mm | 2.24 m/s, 5° | 677 W/m² | - |
| 1777635861 | 21.67° C | 39% | 1026.9 hPa | 0 mm | 0.45 m/s, 345° | 678 W/m² | - |
| 1777635801 | 21.67° C | 40% | 1026.8 hPa | 0 mm | 0.45 m/s, 51° | 681 W/m² | - |
| 1777635741 | 21.67° C | 39% | 1026.9 hPa | 0 mm | 0.45 m/s, 87° | 680 W/m² | - |
| 1777635681 | 21.67° C | 39% | 1026.8 hPa | 0 mm | 1.79 m/s, 62° | 681 W/m² | - |
| 1777635622 | 21.67° C | 38% | 1026.7 hPa | 0 mm | 0.89 m/s, 20° | 681 W/m² | - |
| 1777635561 | 21.67° C | 39% | 1026.7 hPa | 0 mm | 1.34 m/s, 49° | 681 W/m² | - |
| 1777635502 | 21.67° C | 38% | 1026.8 hPa | 0 mm | 1.79 m/s, 29° | 682 W/m² | - |
| 1777635443 | 21.67° C | 40% | 1026.9 hPa | 0 mm | 0.45 m/s, 14° | 682 W/m² | - |
| 1777635382 | 21.67° C | 38% | 1027 hPa | 0 mm | 1.34 m/s, 349° | 682 W/m² | - |
| 1777635322 | 21.67° C | 40% | 1026.8 hPa | 0 mm | 0.45 m/s, 89° | 682 W/m² | - |
| 1777635261 | 21.67° C | 39% | 1026.8 hPa | 0 mm | 0.89 m/s, 352° | 684 W/m² | - |
| 1777635202 | 21.67° C | 38% | 1026.9 hPa | 0 mm | 1.79 m/s, 349° | 685 W/m² | - |
| 1777635142 | 22.22° C | 39% | 1026.8 hPa | 0 mm | 1.79 m/s, 343° | 684 W/m² | - |
| 1777635082 | 22.22° C | 39% | 1026.8 hPa | 0 mm | 0.89 m/s, 305° | 684 W/m² | - |
* Rain latest hour (hover to see other rain measurements)
** Current wind speed in m/s (hover to see current wind gust speed)